Latest Coastal Weather Observations for Flinders Island Airport

IDT60701

Issued at 5:32 pm EDT Friday 30 January 2015 (issued every 10 minutes, with the page automatically refreshed every 10 minutes)

About coastal observations | Map of coastal stations | Coastal observations for TAS | Marine services | Other Formats
Station Details ID: 099005 Name: FLINDERS ISLAND AIRPORT Lat: -40.09 Lon: 148.00 Height: 9.0 m
Data from the previous 72 hours. | See also: Recent months at Flinders Island Airport
Date/Time
EDT
Temp

°C
Wind Pressure Rain
since 9am
mm
Weather Cloud Vis
km
Sea
Height
m
Swell
Dir
 
Speed
knots
Gust
knots
hPa Trend Height
m
Period
s
Dir
30/05:30pm 16.5 SSE 8 12 1011.3 - 0.0 - Partly cloudy 10 - - - -
30/05:00pm 16.5 S 10 14 1011.4 - 0.0 - Partly cloudy 10 - - - -
30/04:30pm 16.9 S 9 14 1011.6 - 0.0 - Partly cloudy 10 - - - -
30/04:00pm 16.9 SSE 9 15 1011.8 - 0.0 - Cloudy 10 - - - -
30/03:30pm 17.2 S 9 14 1012.0 - 0.0 - Cloudy 10 - - - -
30/03:00pm 17.6 S 11 18 1012.1 - 0.0 - Mostly cloudy 10 - - - -
30/02:30pm 16.8 S 13 18 1012.5 - 0.0 - Cloudy 10 - - - -
30/02:00pm 16.7 S 14 19 1012.6 - 0.0 - Cloudy 10 - - - -
30/01:30pm 16.9 S 13 20 1012.9 - 0.0 - Partly cloudy 10 - - - -
30/01:00pm 16.3 S 14 20 1013.4 - 0.0 - Cloudy 10 - - - -
30/12:31pm 16.1 S 16 26 1013.4 - 0.0 - Cloudy 10 - - - -
30/12:30pm 16.0 S 17 26 1013.4 - 0.0 - Cloudy 10 - - - -
30/12:00pm 15.5 S 19 31 1013.7 - 0.0 - Mostly cloudy 10 - - - -
30/11:30am 15.0 SSE 18 32 1013.8 - 0.0 - Partly cloudy 10 - - - -
30/11:00am 15.0 S 17 30 1014.0 - 0.0 - Cloudy 10 - - - -
30/10:30am 14.9 S 18 30 1014.2 - 0.0 - Cloudy 10 - - - -
30/10:22am 14.8 S 16 26 1014.3 - 0.0 - Cloudy 10 - - - -
30/10:00am 14.8 S 17 25 1014.2 - 0.0 - Cloudy 10 - - - -
30/09:30am 14.8 S 18 28 1014.4 - 0.0 - Partly cloudy 10 - - - -
30/09:06am 14.9 SSE 15 26 1014.3 - 0.0 - Partly cloudy 10 - - - -
30/09:00am 14.8 SSE 15 24 1014.3 - 1.4 - Cloudy 10 - - - -
30/08:30am 14.7 S 18 29 1014.5 - 1.4 - Cloudy 10 - - - -
30/08:00am 14.4 S 17 28 1014.6 - 1.4 - Cloudy 10 - - - -
30/07:30am 14.2 S 18 31 1014.5 - 1.4 - Cloudy 10 - - - -
30/07:00am 14.1 SSE 15 25 1014.5 - 1.4 - Partly cloudy 10 - - - -
30/06:30am 14.0 S 17 27 1014.4 - 1.4 - Partly cloudy 10 - - - -
30/06:00am 13.5 SSE 17 27 1014.5 - 1.4 - Cloudy 10 - - - -
30/05:49am 13.9 SSE 16 26 1014.4 - 1.4 - Partly cloudy 10 - - - -
30/05:30am 13.7 S 18 26 1014.5 - 1.4 - Partly cloudy 10 - - - -
30/05:19am 14.1 S 15 25 1014.4 - 1.4 - Partly cloudy 10 - - - -
30/05:00am 13.8 SSE 14 25 1014.6 - 1.4 - Cloudy 10 - - - -
30/04:55am 14.0 SSE 15 25 1014.6 - 1.4 - Partly cloudy 10 - - - -
30/04:30am 13.9 SSE 13 20 1014.7 - 1.4 - Partly cloudy 10 - - - -
30/04:00am 13.8 SSE 14 21 1015.1 - 1.4 - Partly cloudy 10 - - - -
30/03:30am 13.5 SSE 13 20 1015.6 - 1.4 - Partly cloudy 10 - - - -
30/03:00am 14.0 S 17 27 1016.0 - 1.4 - Cloudy 10 - - - -
30/02:37am 14.0 S 16 26 1016.1 - 1.4 - Partly cloudy 10 - - - -
30/02:30am 14.1 S 18 26 1016.1 - 1.4 - Partly cloudy 10 - - - -
30/02:00am 14.1 S 18 28 1016.3 - 1.4 - Partly cloudy 10 - - - -
30/01:37am 14.2 S 17 27 1016.6 - 1.4 - Partly cloudy 10 - - - -
30/01:30am 14.2 S 17 26 1016.8 - 1.4 - Partly cloudy 10 - - - -
30/01:03am 14.4 S 17 28 1017.1 - 1.4 - Partly cloudy 10 - - - -
30/01:00am 14.4 S 17 23 1017.0 - 1.4 - Partly cloudy 10 - - - -
30/12:48am 14.4 S 17 27 1017.2 - 1.4 - Partly cloudy 10 - - - -
30/12:30am 14.4 S 20 28 1017.2 - 1.4 - Partly cloudy 10 - - - -
30/12:00am 14.6 S 17 25 1017.5 - 1.4 - Mostly cloudy 10 - - - -
 
Date/Time
EDT
Temp

°C
Wind Pressure Rain
since 9am
mm
Weather Cloud Vis
km
Sea
Height
m
Swell
Dir
 
Speed
knots
Gust
knots
hPa Trend Height
m
Period
s
Dir
29/11:45pm 14.5 S 18 28 1017.8 - 1.4 - Partly cloudy 10 - - - -
29/11:30pm 14.5 S 18 24 1018.0 - 1.4 - Partly cloudy 10 - - - -
29/11:02pm 14.7 S 16 27 1018.4 - 1.4 - Cloudy 10 - - - -
29/11:00pm 14.7 S 16 23 1018.4 - 1.4 - Cloudy 10 - - - -
29/10:30pm 14.7 SSE 16 27 1018.8 - 1.4 - Cloudy 10 - - - -
29/10:20pm 14.9 SSE 17 28 1018.8 - 1.4 - Cloudy 10 - - - -
29/10:00pm 14.7 SSE 14 23 1018.9 - 1.4 - Partly cloudy 10 - - - -
29/09:30pm 14.9 SSE 15 25 1018.7 - 1.4 - Cloudy 10 - - - -
29/09:00pm 14.7 SSE 15 26 1018.6 - 1.4 - Partly cloudy 10 - - - -
29/08:59pm 14.7 SSE 15 26 1018.6 - 1.4 - Partly cloudy 10 - - - -
29/08:30pm 14.9 SSE 12 23 1018.5 - 1.4 - - 10 - - - -
29/08:00pm 15.6 SSE 14 22 1018.2 - 1.4 - - 10 - - - -
29/07:30pm 16.4 SSE 12 23 1018.1 - 1.4 - - 10 - - - -
29/07:00pm 16.3 SE 13 27 1018.2 - 1.4 - Partly cloudy 10 - - - -
29/06:30pm 16.3 SE 11 19 1018.3 - 1.4 - Partly cloudy 10 - - - -
29/06:00pm 14.8 SE 13 21 1019.0 - 1.4 - Mostly cloudy 10 - - - -
29/05:30pm 17.4 SSE 14 24 1018.8 - 1.4 - Partly cloudy 10 - - - -
29/05:00pm 17.8 SSE 13 22 1018.9 - 1.4 - Partly cloudy 10 - - - -
29/04:30pm 16.1 SE 12 22 1019.3 - 1.4 - Partly cloudy 10 - - - -
29/04:00pm 19.3 SSE 12 20 1019.0 - 1.4 - Partly cloudy 10 - - - -
29/03:30pm 18.1 SSE 11 20 1019.4 - 1.4 - Partly cloudy 10 - - - -
29/03:00pm 17.2 SSE 15 24 1019.5 - 1.4 - Cloudy 10 - - - -
29/02:43pm 18.1 S 15 26 1019.5 - 1.4 - Partly cloudy 10 - - - -
29/02:30pm 17.9 SSE 11 21 1019.6 - 1.4 - Partly cloudy 10 - - - -
29/02:00pm 16.3 SSE 10 19 1019.7 - 1.4 - Partly cloudy 10 - - - -
29/01:30pm 16.5 SSE 10 16 1019.8 - 1.4 - Partly cloudy 10 - - - -
29/01:16pm 15.4 SSE 9 15 1019.9 - 1.4 - Partly cloudy 10 - - - -
29/01:02pm 14.2 SSE 11 22 1020.2 - 1.4 - Partly cloudy 5 - - - -
29/01:00pm 14.4 SSE 12 22 1020.2 - 1.2 - Partly cloudy 7 - - - -
29/12:30pm 14.4 SSE 9 15 1020.4 - 0.8 - Partly cloudy 10 - - - -
29/12:00pm 17.5 SSE 11 17 1020.1 - 0.4 - Cloudy 10 - - - -
29/11:30am 16.9 SSE 11 17 1020.4 - 0.4 - Partly cloudy 10 - - - -
29/11:09am 15.7 SE 10 16 1020.5 - 0.4 - Partly cloudy 10 - - - -
29/11:00am 15.0 SE 9 17 1020.5 - 0.4 - Partly cloudy 6 - - - -
29/10:58am 14.9 SSE 10 17 1020.6 - 0.4 - Partly cloudy 5 - - - -
29/10:56am 14.7 SSE 11 20 1020.6 - 0.4 - Partly cloudy 6 - - - -
29/10:52am 14.8 SSE 12 20 1020.6 - 0.4 - Partly cloudy 9 - - - -
29/10:42am 15.4 SSE 13 19 1020.5 - 0.2 - Partly cloudy 10 - - - -
29/10:30am 15.2 SSE 10 17 1020.4 - 0.2 - Partly cloudy 10 - - - -
29/10:16am 16.0 SSE 14 23 1020.4 - 0.0 - Partly cloudy 10 - - - -
29/10:00am 16.1 SSE 10 19 1020.4 - 0.0 - Partly cloudy 10 - - - -
29/09:59am 16.7 SSE 10 19 1020.4 - 0.0 - Partly cloudy 10 - - - -
29/09:30am 15.2 SSE 11 18 1020.6 - 0.0 - Partly cloudy 10 - - - -
29/09:00am 15.3 SSE 10 19 1020.4 - 1.2 - Cloudy 10 - - - -
29/08:54am 14.9 SSE 10 19 1020.3 - 1.2 - Partly cloudy 10 - - - -
29/08:30am 14.2 SSE 9 16 1020.3 - 1.2 - Partly cloudy 10 - - - -
29/08:00am 13.9 SSE 11 17 1020.1 - 1.2 - Partly cloudy 10 - - - -
29/07:30am 13.5 S 12 19 1020.1 - 1.2 - Partly cloudy 10 - - - -
29/07:14am 13.2 SE 8 14 1019.8 - 1.2 - Partly cloudy 10 - - - -
29/07:00am 13.0 SSE 12 25 1019.9 - 1.0 - Partly cloudy 5 - - - -
29/06:58am 13.0 SSE 13 25 1019.9 - 1.0 - Partly cloudy 5 - - - -
29/06:30am 12.9 SSE 13 22 1019.8 - 1.0 - Partly cloudy 10 - - - -
29/06:00am 13.1 SSE 14 22 1019.7 - 0.6 Rain Cloudy 10 - - - -
29/05:30am 13.7 S 14 20 1019.7 - 0.2 - Partly cloudy 10 - - - -
29/05:24am 13.8 S 15 25 1019.6 - 0.2 - Partly cloudy 10 - - - -
29/05:23am 13.8 S 16 25 1019.6 - 0.2 - Partly cloudy 10 - - - -
29/05:17am 13.8 S 15 25 1019.6 - 0.2 - Partly cloudy 10 - - - -
29/05:00am 13.9 SSE 15 22 1019.6 - 0.2 - Partly cloudy 10 - - - -
29/04:30am 13.5 SSE 13 20 1019.6 - 0.2 - Partly cloudy 10 - - - -
29/04:00am 14.0 SSE 9 18 1019.6 - 0.0 - Partly cloudy 10 - - - -
29/03:30am 14.1 SSE 10 19 1019.8 - 0.0 - Partly cloudy 10 - - - -
29/03:00am 14.4 SSE 11 17 1020.0 - 0.0 - Cloudy 10 - - - -
29/02:30am 14.5 SSE 12 20 1020.3 - 0.0 - Partly cloudy 10 - - - -
29/02:00am 14.4 SSE 13 19 1020.6 - 0.0 - Partly cloudy 10 - - - -
29/01:30am 14.7 S 13 18 1020.8 - 0.0 - Partly cloudy 10 - - - -
29/01:21am 14.8 S 15 24 1020.9 - 0.0 - Partly cloudy 10 - - - -
29/01:00am 14.7 SSE 7 14 1021.1 - 0.0 - Partly cloudy 10 - - - -
29/12:30am 14.6 SSE 10 17 1021.3 - 0.0 - Partly cloudy 10 - - - -
29/12:00am 14.8 SSE 11 18 1021.5 - 0.0 - Cloudy 10 - - - -
 
Date/Time
EDT
Temp

°C
Wind Pressure Rain
since 9am
mm
Weather Cloud Vis
km
Sea
Height
m
Swell
Dir
 
Speed
knots
Gust
knots
hPa Trend Height
m
Period
s
Dir
28/11:30pm 14.1 SE 7 13 1021.7 - 0.0 - Partly cloudy 10 - - - -
28/11:00pm 14.7 SE 7 13 1022.1 - 0.0 - Partly cloudy 10 - - - -
28/10:30pm 14.7 SE 7 10 1022.2 - 0.0 - Partly cloudy 10 - - - -
28/10:00pm 14.2 SE 7 10 1022.2 - 0.0 - Partly cloudy 10 - - - -
28/09:30pm 14.5 SE 8 15 1022.0 - 0.0 - Partly cloudy 10 - - - -
28/09:00pm 14.5 SE 9 16 1021.9 - 0.0 - Partly cloudy 10 - - - -
28/08:30pm 14.8 ESE 10 17 1021.7 - 0.0 - Cloudy 10 - - - -
28/08:00pm 15.2 SE 10 19 1021.5 - 0.0 - Partly cloudy 10 - - - -
28/07:30pm 15.9 ESE 9 16 1021.3 - 0.0 - Partly cloudy 10 - - - -
28/07:00pm 16.8 SE 10 19 1021.0 - 0.0 - Partly cloudy 10 - - - -
28/06:30pm 17.6 SE 11 22 1020.9 - 0.0 - Partly cloudy 10 - - - -
28/06:00pm 17.1 SE 12 20 1020.7 - 0.0 - Mostly cloudy 10 - - - -
28/05:30pm 17.5 SE 13 19 1020.8 - 0.0 - Partly cloudy 10 - - - -
28/05:00pm 18.6 ESE 13 21 1020.6 - 0.0 - - 10 - - - -
28/04:30pm 18.5 SE 15 26 1020.5 - 0.0 - - 10 - - - -
28/04:06pm 19.1 SE 15 26 1020.5 - 0.0 - Partly cloudy 10 - - - -
28/04:00pm 19.1 SE 13 26 1020.4 - 0.0 - Partly cloudy 10 - - - -
28/03:30pm 18.9 ESE 14 22 1020.6 - 0.0 - Partly cloudy 10 - - - -
28/03:00pm 18.7 ESE 12 21 1020.8 - 0.0 - Mostly cloudy 10 - - - -
28/02:30pm 17.5 SE 11 22 1021.1 - 0.0 - Partly cloudy 10 - - - -
28/02:00pm 19.7 SE 11 19 1021.1 - 0.0 - Partly cloudy 10 - - - -
28/01:30pm 19.9 SE 12 20 1021.1 - 0.0 - Partly cloudy 10 - - - -
28/01:00pm 19.6 ESE 14 26 1021.0 - 0.0 - - 10 - - - -
28/12:30pm 18.9 SE 11 21 1020.8 - 0.0 - Partly cloudy 10 - - - -
28/12:00pm 20.1 SE 12 21 1020.7 - 0.0 - Cloudy 10 - - - -
28/11:30am 18.8 SE 11 18 1020.8 - 0.0 - Partly cloudy 10 - - - -
28/11:00am 17.9 SE 11 17 1020.9 - 0.0 - Partly cloudy 10 - - - -
28/10:30am 17.5 SE 12 20 1021.1 - 0.0 - Partly cloudy 10 - - - -
28/10:00am 16.7 SE 13 20 1020.9 - 0.0 - Partly cloudy 10 - - - -
28/09:30am 18.0 SE 12 21 1020.8 - 0.0 - Partly cloudy 10 - - - -
28/09:00am 17.2 SE 10 17 1020.8 - 0.0 - Mostly clear 10 - - - -
28/08:30am 16.9 ESE 12 21 1020.5 - 0.0 - Partly cloudy 10 - - - -
28/08:00am 16.4 SE 9 18 1020.2 - 0.0 - - 10 - - - -
28/07:30am 15.3 SSE 7 14 1019.8 - 0.0 - - 10 - - - -
28/07:00am 14.4 SSE 8 14 1019.5 - 0.0 - - 10 - - - -
28/06:30am 13.5 SE 8 13 1019.3 - 0.0 - - 10 - - - -
28/06:00am 13.3 ESE 5 9 1019.0 - 0.0 - - 10 - - - -
28/05:30am 13.2 ESE 6 9 1018.7 - 0.0 - - 10 - - - -
28/05:00am 13.8 ESE 6 9 1018.5 - 0.0 - Partly cloudy 10 - - - -
28/04:30am 14.5 SE 7 10 1018.5 - 0.0 - Cloudy 10 - - - -
28/04:00am 13.9 ESE 5 6 1018.6 - 0.0 - Cloudy 10 - - - -
28/03:30am 14.1 SE 5 7 1018.8 - 0.0 - Cloudy 10 - - - -
28/03:00am 13.8 SE 5 7 1018.9 - 0.0 - Mostly cloudy 10 - - - -
28/02:30am 14.2 ESE 6 8 1019.0 - 0.0 - Partly cloudy 10 - - - -
28/02:00am 14.2 ESE 7 12 1019.1 - 0.0 - Partly cloudy 10 - - - -
28/01:30am 14.1 ESE 9 14 1019.0 - 0.0 - Partly cloudy 10 - - - -
28/01:00am 13.4 SE 7 11 1019.0 - 0.0 - - 10 - - - -
28/12:30am 12.7 E 5 5 1018.9 - 0.0 - Partly cloudy 10 - - - -
28/12:00am 10.5 ENE 6 7 1018.9 - 0.0 - - 10 - - - -
 
Date/Time
EDT
Temp

°C
Wind Pressure Rain
since 9am
mm
Weather Cloud Vis
km
Sea
Height
m
Swell
Dir
 
Speed
knots
Gust
knots
hPa Trend Height
m
Period
s
Dir
27/11:30pm 8.7 ENE 5 6 1018.8 - 0.0 - - 10 - - - -
27/11:00pm 9.5 ENE 6 6 1018.8 - 0.0 - - 10 - - - -
27/10:30pm 10.3 ENE 5 6 1018.8 - 0.0 - Partly cloudy 10 - - - -
27/10:00pm 12.0 NE 4 5 1018.6 - 0.0 - Partly cloudy 10 - - - -
27/09:30pm 11.9 WNW 2 4 1018.4 - 0.0 - Partly cloudy 10 - - - -
27/09:00pm 14.2 W 3 7 1017.9 - 0.0 - - 10 - - - -
27/08:30pm 15.7 WSW 5 6 1017.7 - 0.0 - - 10 - - - -
27/08:00pm 16.6 W 7 9 1017.3 - 0.0 - - 10 - - - -
27/07:30pm 17.3 W 8 11 1017.0 - 0.0 - - 10 - - - -
27/07:00pm 17.3 W 10 12 1016.5 - 0.0 - - 10 - - - -
27/06:30pm 17.7 WNW 11 15 1016.0 - 0.0 - - 10 - - - -
27/06:00pm 18.0 WNW 11 15 1016.0 - 0.0 - - 10 - - - -

Other Formats:

Comma delimited format used in spreadsheet applications
http://www.bom.gov.au/fwo/IDT60701/IDT60701.94980.axf

JavaScript Object Notation format (JSON) in row-major order
http://www.bom.gov.au/fwo/IDT60701/IDT60701.94980.json